CheckWX is a tool to help pilots better visualize weather data.  It is not intended as a substitute for an official pre-flight weather briefing.

05:13:03 UTC

KTMK METAR
Tillamook Airport
Tillamook, Oregon, USA
Current

18 mins ago

KTMK 240455Z AUTO 00000KT 7SM CLR 06/05 A3025 RMK AO2
Observed
Mar-24 @ 04:55 UTC
Visibility
7 SM
Flight Rules
VFR
Cloud Levels
  • Clear skies
Temperature
C / 43°F
Dewpoint
C / 41°F
Humidity
93%
Altimeter
30.25" Hg
Pressure
1024.42 hPa
Previous

38 mins ago

KTMK 240435Z AUTO 15003KT 10SM CLR 06/06 A3024 RMK AO2
Observed
Mar-24 @ 04:35 UTC
Wind
  • 150° at 3 KTS
Visibility
10 SM
Flight Rules
VFR
Cloud Levels
  • Clear skies
Temperature
C / 43°F
Dewpoint
C / 43°F
Humidity
100%
Altimeter
30.24" Hg
Pressure
1024.02 hPa
Previous

58 mins ago

KTMK 240415Z AUTO 16004KT 10SM CLR 06/06 A3024 RMK AO2
Observed
Mar-24 @ 04:15 UTC
Wind
  • 160° at 4 KTS
Visibility
10 SM
Flight Rules
VFR
Cloud Levels
  • Clear skies
Temperature
C / 43°F
Dewpoint
C / 43°F
Humidity
100%
Altimeter
30.24" Hg
Pressure
1024.02 hPa